RYR9373 LKTB-LIME
Flight info
| Callsign | RYR9373 |
|---|---|
| Flight time | 1h 4m |
| Altitude | 34000 |
| Route | MIKOV DCT STO DCT INGID DCT DETSA/N0425F330 DCT NAXAV/N0340F190 M984 LUSIL T772 EKLIB |
| Aircraft | B738/M-SDE2E3FGHIRWXY/LB1 |
Departure
| Time | 2026-04-17 10:06 |
|---|---|
| Airport | Brno-Tuřany Airport (LKTB) |
Arrival
| Time | 2026-04-17 11:10 |
|---|---|
| Airport | Il Caravaggio International Airport (LIME) |
| Time | Latitude | Longitude | Altitude | Speed | Heading |
|---|---|---|---|---|---|
| 2026-04-17 09:45 | 49.15393 | 16.69053 | 786 ft | 0 kts | 10° |
| 2026-04-17 09:56 | 49.15383 | 16.69050 | 786 ft | 4 kts | 18° |
| 2026-04-17 09:56 | 49.15362 | 16.69031 | 786 ft | 4 kts | 64° |
| 2026-04-17 09:56 | 49.15358 | 16.68993 | 786 ft | 3 kts | 97° |
| 2026-04-17 09:57 | 49.15359 | 16.68986 | 786 ft | 1 kts | 98° |
| 2026-04-17 10:00 | 49.15351 | 16.69081 | 786 ft | 18 kts | 97° |
| 2026-04-17 10:00 | 49.15332 | 16.69300 | 786 ft | 21 kts | 97° |
| 2026-04-17 10:00 | 49.15312 | 16.69522 | 786 ft | 21 kts | 97° |
| 2026-04-17 10:00 | 49.15294 | 16.69737 | 786 ft | 20 kts | 98° |
| 2026-04-17 10:01 | 49.15276 | 16.69946 | 786 ft | 19 kts | 98° |
| 2026-04-17 10:01 | 49.15258 | 16.70148 | 786 ft | 19 kts | 97° |
| 2026-04-17 10:01 | 49.15242 | 16.70343 | 786 ft | 18 kts | 97° |
| 2026-04-17 10:01 | 49.15226 | 16.70532 | 786 ft | 18 kts | 97° |
| 2026-04-17 10:02 | 49.15211 | 16.70715 | 786 ft | 17 kts | 97° |
| 2026-04-17 10:02 | 49.15197 | 16.70890 | 786 ft | 16 kts | 97° |
| 2026-04-17 10:02 | 49.15183 | 16.71060 | 786 ft | 16 kts | 97° |
| 2026-04-17 10:02 | 49.15158 | 16.71196 | 786 ft | 12 kts | 148° |
| 2026-04-17 10:03 | 49.15082 | 16.71192 | 785 ft | 0 kts | 188° |
| 2026-04-17 10:04 | 49.15076 | 16.71191 | 785 ft | 5 kts | 188° |
| 2026-04-17 10:04 | 49.14995 | 16.71160 | 780 ft | 15 kts | 224° |
| 2026-04-17 10:04 | 49.14986 | 16.71081 | 779 ft | 0 kts | 278° |
| 2026-04-17 10:05 | 49.14999 | 16.70940 | 779 ft | 45 kts | 277° |
| 2026-04-17 10:05 | 49.15075 | 16.70073 | 776 ft | 117 kts | 278° |
| 2026-04-17 10:05 | 49.15211 | 16.68541 | 842 ft | 168 kts | 280° |
| 2026-04-17 10:06 | 49.15369 | 16.66765 | 1633 ft | 167 kts | 280° |
| 2026-04-17 10:06 | 49.15525 | 16.65006 | 2604 ft | 167 kts | 279° |
| 2026-04-17 10:06 | 49.15661 | 16.63260 | 3524 ft | 168 kts | 274° |
| 2026-04-17 10:06 | 49.15285 | 16.61528 | 4368 ft | 178 kts | 238° |
| 2026-04-17 10:07 | 49.14183 | 16.60323 | 4674 ft | 216 kts | 197° |
| 2026-04-17 10:07 | 49.12625 | 16.60426 | 4921 ft | 245 kts | 156° |
| 2026-04-17 10:07 | 49.11183 | 16.62022 | 5189 ft | 270 kts | 137° |
| 2026-04-17 10:07 | 49.09712 | 16.63996 | 5811 ft | 283 kts | 139° |
| 2026-04-17 10:08 | 49.08216 | 16.65880 | 6837 ft | 283 kts | 140° |
| 2026-04-17 10:08 | 49.06648 | 16.67745 | 7695 ft | 289 kts | 147° |
| 2026-04-17 10:08 | 49.04725 | 16.68752 | 8481 ft | 294 kts | 178° |
| 2026-04-17 10:08 | 49.02696 | 16.68468 | 9408 ft | 293 kts | 191° |
| 2026-04-17 10:09 | 49.00684 | 16.67936 | 10311 ft | 296 kts | 193° |
| 2026-04-17 10:09 | 48.98606 | 16.67360 | 10797 ft | 315 kts | 193° |
| 2026-04-17 10:09 | 48.96381 | 16.66747 | 11015 ft | 340 kts | 192° |
| 2026-04-17 10:09 | 48.94006 | 16.66110 | 11638 ft | 350 kts | 192° |
| 2026-04-17 10:10 | 48.91589 | 16.65476 | 12436 ft | 355 kts | 192° |
| 2026-04-17 10:10 | 48.89137 | 16.64839 | 13228 ft | 360 kts | 192° |
| 2026-04-17 10:10 | 48.86646 | 16.64197 | 14010 ft | 366 kts | 192° |
| 2026-04-17 10:11 | 48.81563 | 16.62888 | 15380 ft | 375 kts | 192° |
| 2026-04-17 10:11 | 48.79051 | 16.61853 | 16021 ft | 375 kts | 209° |
| 2026-04-17 10:11 | 48.76919 | 16.59647 | 16730 ft | 369 kts | 229° |
| 2026-04-17 10:11 | 48.75128 | 16.56795 | 17506 ft | 370 kts | 232° |
| 2026-04-17 10:12 | 48.73390 | 16.53882 | 18191 ft | 374 kts | 233° |
| 2026-04-17 10:12 | 48.71671 | 16.50973 | 18812 ft | 378 kts | 233° |
| 2026-04-17 10:12 | 48.69905 | 16.48002 | 19420 ft | 381 kts | 233° |
| 2026-04-17 10:12 | 48.68094 | 16.44979 | 20038 ft | 384 kts | 233° |
| 2026-04-17 10:13 | 48.66282 | 16.41977 | 20628 ft | 388 kts | 232° |
| 2026-04-17 10:13 | 48.64448 | 16.38955 | 21212 ft | 392 kts | 232° |
| 2026-04-17 10:13 | 48.62654 | 16.36010 | 21776 ft | 395 kts | 232° |
| 2026-04-17 10:13 | 48.60782 | 16.32944 | 22362 ft | 398 kts | 232° |
| 2026-04-17 10:14 | 48.58896 | 16.29860 | 22914 ft | 402 kts | 232° |
| 2026-04-17 10:14 | 48.56992 | 16.26750 | 23461 ft | 405 kts | 232° |
| 2026-04-17 10:14 | 48.55068 | 16.23611 | 23975 ft | 408 kts | 232° |
| 2026-04-17 10:14 | 48.53134 | 16.20460 | 24452 ft | 411 kts | 232° |
| 2026-04-17 10:15 | 48.51188 | 16.17292 | 24904 ft | 413 kts | 232° |
| 2026-04-17 10:15 | 48.49231 | 16.14111 | 25355 ft | 416 kts | 233° |
| 2026-04-17 10:15 | 48.47260 | 16.10909 | 25786 ft | 418 kts | 232° |
| 2026-04-17 10:15 | 48.45274 | 16.07687 | 26225 ft | 421 kts | 232° |
| 2026-04-17 10:16 | 48.43272 | 16.04443 | 26652 ft | 423 kts | 233° |
| 2026-04-17 10:16 | 48.41297 | 16.01156 | 27044 ft | 424 kts | 237° |
| 2026-04-17 10:16 | 48.39520 | 15.97623 | 27431 ft | 424 kts | 240° |
| 2026-04-17 10:16 | 48.37812 | 15.93997 | 27859 ft | 425 kts | 241° |
| 2026-04-17 10:17 | 48.36123 | 15.90339 | 28242 ft | 427 kts | 241° |
| 2026-04-17 10:17 | 48.34420 | 15.86650 | 28616 ft | 430 kts | 241° |
| 2026-04-17 10:17 | 48.32702 | 15.82954 | 28987 ft | 433 kts | 240° |
| 2026-04-17 10:17 | 48.30969 | 15.79259 | 29462 ft | 433 kts | 240° |
| 2026-04-17 10:18 | 48.29229 | 15.75578 | 30024 ft | 431 kts | 240° |
| 2026-04-17 10:18 | 48.27492 | 15.71922 | 30532 ft | 429 kts | 240° |
| 2026-04-17 10:18 | 48.25760 | 15.68290 | 30945 ft | 428 kts | 240° |
| 2026-04-17 10:18 | 48.24030 | 15.64666 | 31375 ft | 426 kts | 240° |
| 2026-04-17 10:19 | 48.22304 | 15.61058 | 31802 ft | 425 kts | 240° |
| 2026-04-17 10:19 | 48.20583 | 15.57463 | 32216 ft | 424 kts | 240° |
| 2026-04-17 10:19 | 48.18863 | 15.53874 | 32639 ft | 422 kts | 240° |
| 2026-04-17 10:19 | 48.17155 | 15.50317 | 33078 ft | 421 kts | 240° |
| 2026-04-17 10:20 | 48.15446 | 15.46760 | 33482 ft | 419 kts | 240° |
| 2026-04-17 10:20 | 48.13748 | 15.43229 | 33869 ft | 418 kts | 240° |
| 2026-04-17 10:20 | 48.12050 | 15.39705 | 34232 ft | 417 kts | 240° |
| 2026-04-17 10:21 | 48.08643 | 15.32641 | 34240 ft | 418 kts | 240° |
| 2026-04-17 10:21 | 48.05249 | 15.25627 | 34238 ft | 415 kts | 240° |
| 2026-04-17 10:22 | 48.01863 | 15.18646 | 34251 ft | 418 kts | 240° |
| 2026-04-17 10:22 | 47.98393 | 15.11498 | 34239 ft | 430 kts | 239° |
| 2026-04-17 10:23 | 47.94839 | 15.04204 | 34248 ft | 440 kts | 239° |
| 2026-04-17 10:23 | 47.91815 | 14.98017 | 34244 ft | 448 kts | 239° |
| 2026-04-17 10:24 | 47.88097 | 14.90433 | 34229 ft | 455 kts | 239° |
| 2026-04-17 10:24 | 47.84348 | 14.82815 | 34253 ft | 457 kts | 238° |
| 2026-04-17 10:25 | 47.80579 | 14.75172 | 34230 ft | 459 kts | 238° |
| 2026-04-17 10:25 | 47.76806 | 14.67543 | 34246 ft | 457 kts | 238° |
| 2026-04-17 10:26 | 47.73037 | 14.59937 | 34239 ft | 456 kts | 238° |
| 2026-04-17 10:26 | 47.69286 | 14.52390 | 34261 ft | 453 kts | 238° |
| 2026-04-17 10:27 | 47.65540 | 14.44871 | 34229 ft | 454 kts | 238° |
| 2026-04-17 10:27 | 47.61783 | 14.37352 | 34239 ft | 453 kts | 237° |
| 2026-04-17 10:28 | 47.58028 | 14.29859 | 34241 ft | 453 kts | 237° |
| 2026-04-17 10:28 | 47.54262 | 14.22364 | 34238 ft | 453 kts | 237° |
| 2026-04-17 10:29 | 47.50496 | 14.14889 | 34241 ft | 454 kts | 237° |
| 2026-04-17 10:29 | 47.46713 | 14.07400 | 34239 ft | 455 kts | 237° |
| 2026-04-17 10:30 | 47.42928 | 13.99928 | 34237 ft | 454 kts | 237° |
| 2026-04-17 10:30 | 47.39136 | 13.92461 | 34245 ft | 453 kts | 236° |
| 2026-04-17 10:31 | 47.35350 | 13.85028 | 34229 ft | 454 kts | 236° |
| 2026-04-17 10:31 | 47.31562 | 13.77605 | 34234 ft | 454 kts | 236° |
| 2026-04-17 10:32 | 47.27763 | 13.70173 | 34242 ft | 453 kts | 237° |
| 2026-04-17 10:32 | 47.24720 | 13.62156 | 34239 ft | 448 kts | 247° |
| 2026-04-17 10:33 | 47.22081 | 13.53838 | 34227 ft | 448 kts | 248° |
| 2026-04-17 10:33 | 47.19432 | 13.45544 | 34230 ft | 449 kts | 247° |
| 2026-04-17 10:34 | 47.16747 | 13.37270 | 34228 ft | 449 kts | 247° |
| 2026-04-17 10:34 | 47.14040 | 13.29001 | 34226 ft | 449 kts | 246° |
| 2026-04-17 10:35 | 47.11330 | 13.20756 | 34215 ft | 449 kts | 246° |
| 2026-04-17 10:35 | 47.08616 | 13.12523 | 34221 ft | 449 kts | 246° |
| 2026-04-17 10:36 | 47.05893 | 13.04285 | 34214 ft | 449 kts | 246° |
| 2026-04-17 10:36 | 47.03166 | 12.96061 | 34207 ft | 448 kts | 246° |
| 2026-04-17 10:37 | 47.00433 | 12.87846 | 34212 ft | 448 kts | 246° |
| 2026-04-17 10:37 | 46.97696 | 12.79644 | 34212 ft | 447 kts | 246° |
| 2026-04-17 10:38 | 46.94958 | 12.71466 | 34202 ft | 447 kts | 246° |
| 2026-04-17 10:38 | 46.92221 | 12.63317 | 34215 ft | 447 kts | 246° |
| 2026-04-17 10:39 | 46.89467 | 12.55141 | 34218 ft | 447 kts | 246° |
| 2026-04-17 10:39 | 46.86700 | 12.46950 | 34220 ft | 448 kts | 245° |
| 2026-04-17 10:40 | 46.83954 | 12.38847 | 34226 ft | 447 kts | 245° |
| 2026-04-17 10:40 | 46.81181 | 12.30687 | 34235 ft | 448 kts | 245° |
| 2026-04-17 10:41 | 46.78381 | 12.22540 | 34237 ft | 448 kts | 245° |
| 2026-04-17 10:41 | 46.75566 | 12.14484 | 34234 ft | 448 kts | 245° |
| 2026-04-17 10:42 | 46.72721 | 12.06368 | 34226 ft | 448 kts | 245° |
| 2026-04-17 10:42 | 46.69900 | 11.98327 | 34230 ft | 448 kts | 245° |
| 2026-04-17 10:43 | 46.67051 | 11.90224 | 34219 ft | 448 kts | 245° |
| 2026-04-17 10:43 | 46.64373 | 11.82631 | 34201 ft | 447 kts | 245° |
| 2026-04-17 10:44 | 46.61521 | 11.74565 | 34190 ft | 447 kts | 244° |
| 2026-04-17 10:44 | 46.58664 | 11.66511 | 34186 ft | 447 kts | 244° |
| 2026-04-17 10:45 | 46.55821 | 11.58521 | 34199 ft | 447 kts | 244° |
| 2026-04-17 10:45 | 46.54384 | 11.54490 | 33956 ft | 451 kts | 244° |
| 2026-04-17 10:45 | 46.52936 | 11.50434 | 33610 ft | 451 kts | 244° |
| 2026-04-17 10:45 | 46.51487 | 11.46380 | 33152 ft | 450 kts | 244° |
| 2026-04-17 10:46 | 46.50040 | 11.42343 | 32730 ft | 452 kts | 244° |
| 2026-04-17 10:46 | 46.48587 | 11.38286 | 32285 ft | 454 kts | 244° |
| 2026-04-17 10:46 | 46.47137 | 11.34250 | 31847 ft | 456 kts | 244° |
| 2026-04-17 10:46 | 46.45672 | 11.30153 | 31402 ft | 457 kts | 245° |
| 2026-04-17 10:47 | 46.44245 | 11.26035 | 30977 ft | 458 kts | 245° |
| 2026-04-17 10:47 | 46.42828 | 11.21880 | 30531 ft | 459 kts | 245° |
| 2026-04-17 10:47 | 46.41408 | 11.17710 | 30070 ft | 461 kts | 246° |
| 2026-04-17 10:47 | 46.39988 | 11.13551 | 29645 ft | 462 kts | 245° |
| 2026-04-17 10:48 | 46.38554 | 11.09373 | 29176 ft | 462 kts | 245° |
| 2026-04-17 10:48 | 46.37114 | 11.05192 | 28697 ft | 464 kts | 245° |
| 2026-04-17 10:48 | 46.35683 | 11.01053 | 28224 ft | 466 kts | 245° |
| 2026-04-17 10:48 | 46.34226 | 10.96847 | 27763 ft | 467 kts | 245° |
| 2026-04-17 10:49 | 46.32762 | 10.92624 | 27278 ft | 470 kts | 245° |
| 2026-04-17 10:49 | 46.31290 | 10.88387 | 26786 ft | 472 kts | 245° |
| 2026-04-17 10:49 | 46.29803 | 10.84110 | 26315 ft | 475 kts | 245° |
| 2026-04-17 10:49 | 46.28314 | 10.79837 | 25835 ft | 477 kts | 245° |
| 2026-04-17 10:50 | 46.26822 | 10.75557 | 25355 ft | 478 kts | 245° |
| 2026-04-17 10:50 | 46.25314 | 10.71240 | 24870 ft | 478 kts | 245° |
| 2026-04-17 10:50 | 46.23841 | 10.67030 | 24390 ft | 471 kts | 245° |
| 2026-04-17 10:50 | 46.22365 | 10.62817 | 23919 ft | 466 kts | 245° |
| 2026-04-17 10:51 | 46.20902 | 10.58645 | 23355 ft | 464 kts | 245° |
| 2026-04-17 10:51 | 46.19445 | 10.54493 | 22862 ft | 460 kts | 245° |
| 2026-04-17 10:51 | 46.18000 | 10.50381 | 22400 ft | 457 kts | 245° |
| 2026-04-17 10:51 | 46.16564 | 10.46301 | 21914 ft | 455 kts | 245° |
| 2026-04-17 10:52 | 46.15132 | 10.42244 | 21451 ft | 452 kts | 245° |
| 2026-04-17 10:52 | 46.13713 | 10.38231 | 21033 ft | 449 kts | 245° |
| 2026-04-17 10:52 | 46.12293 | 10.34216 | 20572 ft | 448 kts | 244° |
| 2026-04-17 10:52 | 46.10897 | 10.30270 | 20104 ft | 446 kts | 244° |
| 2026-04-17 10:53 | 46.09470 | 10.26244 | 19653 ft | 444 kts | 244° |
| 2026-04-17 10:53 | 46.08091 | 10.22355 | 19212 ft | 441 kts | 244° |
| 2026-04-17 10:53 | 46.06782 | 10.18672 | 18796 ft | 439 kts | 244° |
| 2026-04-17 10:53 | 46.05379 | 10.14783 | 18328 ft | 437 kts | 242° |
| 2026-04-17 10:54 | 46.03618 | 10.11216 | 17825 ft | 436 kts | 230° |
| 2026-04-17 10:54 | 46.01394 | 10.08260 | 17368 ft | 435 kts | 219° |
| 2026-04-17 10:54 | 45.98976 | 10.05687 | 16910 ft | 428 kts | 218° |
| 2026-04-17 10:54 | 45.96593 | 10.03153 | 16470 ft | 424 kts | 218° |
| 2026-04-17 10:55 | 45.94235 | 10.00605 | 16044 ft | 426 kts | 218° |
| 2026-04-17 10:55 | 45.91873 | 9.98019 | 15629 ft | 424 kts | 218° |
| 2026-04-17 10:55 | 45.89541 | 9.95456 | 15192 ft | 420 kts | 218° |
| 2026-04-17 10:55 | 45.87270 | 9.92971 | 14776 ft | 411 kts | 218° |
| 2026-04-17 10:56 | 45.85015 | 9.90526 | 14359 ft | 403 kts | 218° |
| 2026-04-17 10:56 | 45.82772 | 9.88093 | 13885 ft | 395 kts | 218° |
| 2026-04-17 10:56 | 45.80627 | 9.85760 | 13438 ft | 388 kts | 218° |
| 2026-04-17 10:56 | 45.78491 | 9.83435 | 13033 ft | 381 kts | 218° |
| 2026-04-17 10:57 | 45.76404 | 9.81167 | 12644 ft | 374 kts | 218° |
| 2026-04-17 10:57 | 45.74349 | 9.78935 | 12265 ft | 369 kts | 218° |
| 2026-04-17 10:57 | 45.72305 | 9.76717 | 11853 ft | 367 kts | 218° |
| 2026-04-17 10:57 | 45.70269 | 9.74513 | 11461 ft | 366 kts | 217° |
| 2026-04-17 10:58 | 45.68027 | 9.72828 | 11044 ft | 364 kts | 196° |
| 2026-04-17 10:58 | 45.65568 | 9.72428 | 10684 ft | 349 kts | 176° |
| 2026-04-17 10:58 | 45.63249 | 9.73126 | 10343 ft | 334 kts | 159° |
| 2026-04-17 10:58 | 45.61181 | 9.74408 | 10196 ft | 314 kts | 155° |
| 2026-04-17 10:59 | 45.59243 | 9.75664 | 10127 ft | 295 kts | 155° |
| 2026-04-17 10:59 | 45.57423 | 9.76825 | 9892 ft | 284 kts | 156° |
| 2026-04-17 10:59 | 45.55575 | 9.77984 | 9464 ft | 288 kts | 156° |
| 2026-04-17 10:59 | 45.53742 | 9.79140 | 9227 ft | 284 kts | 153° |
| 2026-04-17 11:00 | 45.52252 | 9.80829 | 9143 ft | 273 kts | 131° |
| 2026-04-17 11:00 | 45.51046 | 9.82852 | 9140 ft | 265 kts | 129° |
| 2026-04-17 11:00 | 45.49870 | 9.84862 | 9131 ft | 261 kts | 129° |
| 2026-04-17 11:00 | 45.48703 | 9.86857 | 9141 ft | 263 kts | 129° |
| 2026-04-17 11:01 | 45.47525 | 9.88863 | 9135 ft | 264 kts | 130° |
| 2026-04-17 11:01 | 45.46338 | 9.90874 | 9018 ft | 268 kts | 130° |
| 2026-04-17 11:01 | 45.45532 | 9.92252 | 8670 ft | 276 kts | 127° |
| 2026-04-17 11:01 | 45.44590 | 9.95611 | 8081 ft | 281 kts | 98° |
| 2026-04-17 11:02 | 45.44362 | 9.98406 | 7646 ft | 285 kts | 95° |
| 2026-04-17 11:02 | 45.44239 | 10.00281 | 7355 ft | 288 kts | 95° |
| 2026-04-17 11:02 | 45.44386 | 10.03131 | 6896 ft | 291 kts | 72° |
| 2026-04-17 11:02 | 45.45373 | 10.05593 | 6440 ft | 286 kts | 46° |
| 2026-04-17 11:03 | 45.46897 | 10.07381 | 5997 ft | 281 kts | 36° |
| 2026-04-17 11:03 | 45.48468 | 10.08957 | 5543 ft | 277 kts | 35° |
| 2026-04-17 11:03 | 45.50175 | 10.10105 | 5219 ft | 266 kts | 8° |
| 2026-04-17 11:03 | 45.51913 | 10.09732 | 4940 ft | 246 kts | 331° |
| 2026-04-17 11:04 | 45.53140 | 10.08193 | 4689 ft | 229 kts | 314° |
| 2026-04-17 11:04 | 45.54222 | 10.06624 | 4455 ft | 218 kts | 315° |
| 2026-04-17 11:04 | 45.55272 | 10.05142 | 4207 ft | 205 kts | 315° |
| 2026-04-17 11:04 | 45.56271 | 10.03756 | 3969 ft | 195 kts | 315° |
| 2026-04-17 11:05 | 45.57222 | 10.02444 | 3735 ft | 185 kts | 315° |
| 2026-04-17 11:05 | 45.58131 | 10.01195 | 3524 ft | 184 kts | 315° |
| 2026-04-17 11:05 | 45.59060 | 9.99925 | 3519 ft | 186 kts | 316° |
| 2026-04-17 11:05 | 45.59981 | 9.98659 | 3516 ft | 180 kts | 315° |
| 2026-04-17 11:06 | 45.60892 | 9.97413 | 3513 ft | 182 kts | 315° |
| 2026-04-17 11:06 | 45.61749 | 9.96115 | 3495 ft | 182 kts | 300° |
| 2026-04-17 11:06 | 45.62234 | 9.94440 | 3475 ft | 181 kts | 290° |
| 2026-04-17 11:06 | 45.62656 | 9.92772 | 3508 ft | 179 kts | 287° |
| 2026-04-17 11:07 | 45.63012 | 9.91038 | 3412 ft | 185 kts | 285° |
| 2026-04-17 11:07 | 45.63350 | 9.89251 | 3177 ft | 185 kts | 283° |
| 2026-04-17 11:07 | 45.63669 | 9.87471 | 2922 ft | 182 kts | 283° |
| 2026-04-17 11:07 | 45.63990 | 9.85776 | 2673 ft | 174 kts | 283° |
| 2026-04-17 11:08 | 45.64276 | 9.84136 | 2481 ft | 173 kts | 283° |
| 2026-04-17 11:08 | 45.64594 | 9.82484 | 2209 ft | 168 kts | 283° |
| 2026-04-17 11:08 | 45.64864 | 9.80910 | 1982 ft | 158 kts | 280° |
| 2026-04-17 11:08 | 45.65148 | 9.79396 | 1807 ft | 158 kts | 285° |
| 2026-04-17 11:09 | 45.65441 | 9.77888 | 1546 ft | 155 kts | 284° |
| 2026-04-17 11:09 | 45.65718 | 9.76427 | 1372 ft | 153 kts | 284° |
| 2026-04-17 11:09 | 45.65992 | 9.74949 | 1197 ft | 154 kts | 285° |
| 2026-04-17 11:10 | 45.66533 | 9.72044 | 779 ft | 145 kts | 284° |
| 2026-04-17 11:10 | 45.66765 | 9.70810 | 774 ft | 104 kts | 284° |
| 2026-04-17 11:10 | 45.66862 | 9.70280 | 783 ft | 33 kts | 284° |
| 2026-04-17 11:10 | 45.66875 | 9.69980 | 784 ft | 30 kts | 250° |
| 2026-04-17 11:11 | 45.66793 | 9.69844 | 784 ft | 12 kts | 199° |
| 2026-04-17 11:11 | 45.66712 | 9.69809 | 784 ft | 12 kts | 195° |
| 2026-04-17 11:11 | 45.66680 | 9.69796 | 784 ft | 0 kts | 197° |